Time;durP1;ratioP1;P1;durP2;ratioP2;P2;SDS_P1;SDS_P2;PMS_P1;PMS_P2;Temp;Humidity;BMP_temperature;BMP_pressure;BME280_temperature;BME280_humidity;BME280_pressure;Samples;Min_cycle;Max_cycle;Signal;HPM_P1;HPM_P2
2022/10/04 00:00:40;;;;;;;8.93;5.95;;;;;;;10.92;100.00;102293.44;5062305;28;20041;-69
2022/10/04 00:03:09;;;;;;;13.95;5.88;;;;;;;10.93;100.00;102295.19;5054794;28;20039;-69
2022/10/04 00:05:36;;;;;;;12.57;6.70;;;;;;;10.95;100.00;102297.81;5060696;28;20041;-70
2022/10/04 00:08:17;;;;;;;10.15;6.53;;;;;;;10.94;100.00;102296.91;5051584;28;20136;-70
2022/10/04 00:10:43;;;;;;;15.70;7.43;;;;;;;10.96;100.00;102288.84;5054959;28;20052;-70
2022/10/04 00:13:18;;;;;;;14.68;6.82;;;;;;;10.93;100.00;102291.63;5052418;28;20045;-70
2022/10/04 00:15:49;;;;;;;13.25;6.45;;;;;;;10.90;100.00;102292.66;5060239;28;20147;-70
2022/10/04 00:18:27;;;;;;;16.33;7.30;;;;;;;10.85;100.00;102284.84;5058903;28;20436;-69
2022/10/04 00:20:52;;;;;;;21.42;7.47;;;;;;;10.78;100.00;102286.00;5060574;28;20048;-69
2022/10/04 00:23:23;;;;;;;25.55;7.32;;;;;;;10.87;100.00;102279.41;5041902;28;20047;-69
2022/10/04 00:26:03;;;;;;;15.80;6.88;;;;;;;10.76;100.00;102271.88;5041696;28;20152;-70
2022/10/04 00:28:30;;;;;;;15.45;6.82;;;;;;;10.80;100.00;102276.16;5059655;28;20052;-70
2022/10/04 00:31:10;;;;;;;18.23;7.90;;;;;;;10.79;100.00;102276.19;5057795;28;20489;-70
2022/10/04 00:33:44;;;;;;;24.17;7.25;;;;;;;10.61;100.00;102269.81;5059034;28;20496;-70
2022/10/04 00:36:22;;;;;;;13.77;5.93;;;;;;;10.68;100.00;102267.75;5051679;28;20048;-69
2022/10/04 00:39:32;;;;;;;13.25;5.70;;;;;;;10.76;100.00;102261.19;5057617;28;20527;-69
2022/10/04 00:42:51;;;;;;;10.00;6.20;;;;;;;10.84;100.00;102253.75;4958182;28;20827;-70
2022/10/04 00:45:38;;;;;;;14.43;7.18;;;;;;;10.91;100.00;102254.34;4895537;29;20055;-70
2022/10/04 00:48:23;;;;;;;12.60;8.00;;;;;;;10.95;100.00;102247.97;4915703;29;20974;-70
2022/10/04 00:50:57;;;;;;;13.32;7.07;;;;;;;10.95;100.00;102245.28;4920138;29;20044;-70
2022/10/04 00:53:41;;;;;;;19.98;8.27;;;;;;;10.90;100.00;102241.94;4919257;29;20095;-70
2022/10/04 00:56:21;;;;;;;19.75;9.07;;;;;;;10.95;100.00;102252.44;4897237;29;20055;-70
2022/10/04 00:59:22;;;;;;;16.23;7.82;;;;;;;10.91;100.00;102248.16;4914673;29;20119;-70
2022/10/04 01:01:53;;;;;;;20.95;9.23;;;;;;;10.74;100.00;102233.69;4909721;29;20055;-69
2022/10/04 01:04:52;;;;;;;15.30;8.23;;;;;;;10.81;100.00;102232.50;4917571;29;20047;-69
2022/10/04 01:07:25;;;;;;;17.67;9.85;;;;;;;10.89;100.00;102232.19;4920049;29;20048;-70
2022/10/04 01:09:56;;;;;;;19.70;10.80;;;;;;;10.98;100.00;102230.94;4916274;29;20084;-70
2022/10/04 01:12:54;;;;;;;17.35;10.50;;;;;;;11.04;100.00;102228.84;4913087;29;20056;-70
2022/10/04 01:15:28;;;;;;;23.50;11.55;;;;;;;11.05;100.00;102221.75;4921134;29;20044;-69
2022/10/04 01:18:13;;;;;;;23.95;11.13;;;;;;;10.97;100.00;102211.38;4945251;28;20054;-69
2022/10/04 01:20:53;;;;;;;20.27;11.23;;;;;;;11.02;100.00;102216.53;5054704;28;20052;-70
2022/10/04 01:23:40;;;;;;;21.67;11.15;;;;;;;11.01;100.00;102204.13;5059761;28;20040;-69
2022/10/04 01:26:28;;;;;;;27.15;11.02;;;;;;;10.98;100.00;102209.56;5060478;28;20044;-68
2022/10/04 01:29:07;;;;;;;23.02;10.65;;;;;;;11.01;100.00;102199.66;5040594;28;20400;-68
2022/10/04 01:31:35;;;;;;;19.77;11.20;;;;;;;11.08;100.00;102200.22;5055025;28;20037;-69
2022/10/04 01:34:01;;;;;;;24.10;11.05;;;;;;;11.11;100.00;102195.63;5056806;28;20040;-70
2022/10/04 01:36:27;;;;;;;19.55;10.43;;;;;;;10.99;100.00;102192.63;5061181;28;20066;-68
2022/10/04 01:38:54;;;;;;;21.30;11.07;;;;;;;10.98;100.00;102189.09;5057614;28;20052;-69
2022/10/04 01:41:28;;;;;;;27.48;12.57;;;;;;;11.02;100.00;102187.16;5036000;28;20033;-70
2022/10/04 01:44:00;;;;;;;37.78;12.77;;;;;;;11.08;100.00;102173.53;5038157;28;20048;-68
2022/10/04 01:46:31;;;;;;;28.13;13.80;;;;;;;11.14;100.00;102175.94;5061261;28;20040;-69
2022/10/04 01:49:01;;;;;;;20.17;12.02;;;;;;;11.15;100.00;102177.69;5049679;28;20044;-68
2022/10/04 01:51:32;;;;;;;24.95;13.45;;;;;;;11.13;100.00;102179.53;5055926;28;20389;-68
2022/10/04 01:54:21;;;;;;;29.20;12.48;;;;;;;11.21;100.00;102188.09;5060038;28;20037;-70
2022/10/04 01:57:15;;;;;;;21.38;12.98;;;;;;;11.16;100.00;102192.75;5054441;28;20097;-68
2022/10/04 01:59:51;;;;;;;23.77;12.45;;;;;;;10.99;100.00;102188.16;5052574;28;20049;-70
2022/10/04 02:02:42;;;;;;;22.50;12.25;;;;;;;11.06;100.00;102189.63;5060779;28;20123;-70
2022/10/04 02:05:11;;;;;;;30.15;13.93;;;;;;;11.07;100.00;102187.81;5023530;28;20118;-69
2022/10/04 02:07:39;;;;;;;24.23;12.68;;;;;;;10.91;100.00;102184.97;5032401;28;20048;-68
2022/10/04 02:10:10;;;;;;;26.52;12.75;;;;;;;10.80;100.00;102182.75;5034950;28;20382;-70
2022/10/04 02:12:37;;;;;;;34.65;14.77;;;;;;;10.80;100.00;102168.56;5040330;28;20557;-69
2022/10/04 02:15:07;;;;;;;28.73;13.43;;;;;;;10.80;100.00;102160.53;5041323;28;20143;-69
2022/10/04 02:17:38;;;;;;;28.45;15.00;;;;;;;10.75;100.00;102149.22;5038688;28;20041;-68
2022/10/04 02:20:12;;;;;;;31.70;14.73;;;;;;;10.77;100.00;102142.00;5040590;28;20092;-70
2022/10/04 02:22:38;;;;;;;36.90;16.55;;;;;;;10.80;100.00;102149.88;5041301;28;20037;-70
2022/10/04 02:25:04;;;;;;;30.10;14.20;;;;;;;10.75;100.00;102149.22;5034687;28;20496;-68
2022/10/04 02:27:30;;;;;;;31.00;14.32;;;;;;;10.74;100.00;102144.78;5039365;28;20805;-70
2022/10/04 02:30:01;;;;;;;29.92;14.98;;;;;;;10.73;100.00;102153.72;5035692;28;20062;-70
2022/10/04 02:35:15;;;;;;;25.95;14.57;;;;;;;10.69;100.00;102147.63;5039174;28;20849;-69
2022/10/04 02:37:40;;;;;;;25.85;14.88;;;;;;;10.75;100.00;102135.88;5038862;28;20116;-70
2022/10/04 02:40:14;;;;;;;25.70;15.63;;;;;;;10.77;100.00;102136.66;5038449;28;20573;-69
2022/10/04 02:42:48;;;;;;;29.90;16.35;;;;;;;10.81;100.00;102131.13;5040490;28;20052;-70
2022/10/04 02:45:55;;;;;;;30.15;15.57;;;;;;;10.74;100.00;102120.78;5037981;28;20059;-69
2022/10/04 02:48:44;;;;;;;37.97;16.38;;;;;;;10.71;100.00;102112.91;5024705;28;20080;-70
2022/10/04 02:51:16;;;;;;;25.02;16.05;;;;;;;10.64;100.00;102112.28;5026859;28;20070;-68
2022/10/04 02:53:51;;;;;;;27.63;15.70;;;;;;;10.53;100.00;102101.22;5038369;28;20584;-70
2022/10/04 02:56:17;;;;;;;26.83;17.10;;;;;;;10.42;100.00;102109.69;5040085;28;20037;-70
2022/10/04 02:58:43;;;;;;;40.45;18.05;;;;;;;10.41;100.00;102099.97;5032349;28;20480;-70
2022/10/04 03:01:23;;;;;;;29.58;16.80;;;;;;;10.34;100.00;102109.13;5033190;28;20045;-69
2022/10/04 03:03:48;;;;;;;25.65;16.50;;;;;;;10.28;100.00;102096.94;5045311;28;20689;-68
2022/10/04 03:06:18;;;;;;;34.72;16.60;;;;;;;10.33;100.00;102097.59;5054318;28;20037;-69
2022/10/04 03:08:48;;;;;;;31.20;16.00;;;;;;;10.26;100.00;102089.94;5041848;28;20906;-69
2022/10/04 03:11:15;;;;;;;29.92;16.75;;;;;;;10.24;100.00;102091.78;5053952;28;20139;-68
2022/10/04 03:13:45;;;;;;;29.00;16.30;;;;;;;10.24;100.00;102089.13;5042699;28;20048;-69
2022/10/04 03:16:11;;;;;;;38.75;18.52;;;;;;;10.02;100.00;102087.31;5060850;28;20044;-70
2022/10/04 03:18:37;;;;;;;29.75;16.52;;;;;;;10.04;100.00;102092.56;5059850;28;20028;-69
2022/10/04 03:21:09;;;;;;;29.85;17.27;;;;;;;10.04;100.00;102101.47;5054714;28;20098;-70
2022/10/04 03:23:35;;;;;;;24.50;17.00;;;;;;;9.91;100.00;102102.88;5059921;28;21070;-70
2022/10/04 03:26:12;;;;;;;31.05;17.65;;;;;;;9.92;100.00;102101.09;5053114;28;20060;-70
2022/10/04 03:28:38;;;;;;;40.75;17.05;;;;;;;9.95;100.00;102107.16;5053471;28;20044;-70
2022/10/04 03:31:04;;;;;;;30.52;16.10;;;;;;;9.98;100.00;102104.34;5059818;28;20488;-69
2022/10/04 03:33:30;;;;;;;26.15;15.85;;;;;;;9.95;100.00;102101.84;5059892;28;20109;-70
2022/10/04 03:35:59;;;;;;;32.63;16.90;;;;;;;9.98;100.00;102088.38;5060012;28;20032;-69
2022/10/04 03:38:27;;;;;;;30.73;18.15;;;;;;;10.01;100.00;102088.25;5059827;28;20815;-69
2022/10/04 03:41:00;;;;;;;25.35;16.95;;;;;;;9.90;100.00;102081.66;5059573;28;20912;-70
2022/10/04 03:43:33;;;;;;;33.08;16.77;;;;;;;9.81;100.00;102072.22;5057440;28;20044;-70
2022/10/04 03:46:00;;;;;;;36.97;17.02;;;;;;;9.76;100.00;102071.53;5059586;28;20030;-69
2022/10/04 03:48:34;;;;;;;26.77;16.98;;;;;;;9.65;100.00;102077.28;5045571;28;20032;-70
2022/10/04 03:51:03;;;;;;;31.77;17.17;;;;;;;9.48;100.00;102072.63;5056832;28;20028;-70
2022/10/04 03:53:34;;;;;;;39.70;17.45;;;;;;;9.48;100.00;102063.75;5061710;28;20056;-68
2022/10/04 03:56:01;;;;;;;35.75;19.15;;;;;;;9.41;100.00;102064.94;5062657;28;20898;-69
2022/10/04 03:58:30;;;;;;;36.55;17.33;;;;;;;9.40;100.00;102064.06;5054682;28;20127;-69
2022/10/04 04:01:06;;;;;;;30.80;18.05;;;;;;;9.27;100.00;102073.44;5052332;28;20033;-68
2022/10/04 04:03:44;;;;;;;33.03;18.42;;;;;;;9.25;100.00;102075.31;5060622;28;20044;-69
2022/10/04 04:06:15;;;;;;;37.45;18.05;;;;;;;9.19;100.00;102060.44;5053244;28;20041;-70
2022/10/04 04:08:44;;;;;;;37.33;18.55;;;;;;;9.20;100.00;102053.34;5034012;28;20174;-70
2022/10/04 04:11:19;;;;;;;34.20;18.58;;;;;;;9.22;100.00;102056.78;5035900;28;20044;-69
2022/10/04 04:13:51;;;;;;;34.75;18.42;;;;;;;9.18;100.00;102057.81;5041608;28;20036;-69
2022/10/04 04:16:24;;;;;;;28.23;17.80;;;;;;;9.08;100.00;102054.66;5055133;28;20142;-68
2022/10/04 04:18:52;;;;;;;35.80;18.85;;;;;;;9.04;100.00;102051.25;5059529;28;20048;-69
2022/10/04 04:21:22;;;;;;;32.00;17.05;;;;;;;9.08;100.00;102044.00;5058282;28;20036;-68
2022/10/04 04:23:57;;;;;;;35.58;19.10;;;;;;;8.99;100.00;102037.25;5057649;28;20040;-68
2022/10/04 04:26:30;;;;;;;39.45;20.77;;;;;;;9.01;100.00;102047.84;5052521;28;20040;-68
2022/10/04 04:29:08;;;;;;;44.97;21.50;;;;;;;9.04;100.00;102050.38;5041567;28;20072;-68
2022/10/04 04:31:42;;;;;;;37.50;21.25;;;;;;;8.98;100.00;102051.44;5049061;28;20072;-68
2022/10/04 04:34:24;;;;;;;45.53;21.50;;;;;;;8.98;100.00;102056.78;5053228;28;20484;-70
2022/10/04 04:36:51;;;;;;;40.55;22.70;;;;;;;9.05;100.00;102046.78;5059515;28;20078;-68
2022/10/04 04:42:09;;;;;;;37.58;21.92;;;;;;;9.12;100.00;102047.41;5060380;28;20040;-69
2022/10/04 04:44:52;;;;;;;53.13;21.42;;;;;;;9.01;100.00;102046.03;5060905;28;20032;-68
2022/10/04 04:47:40;;;;;;;40.63;21.42;;;;;;;8.97;100.00;102041.75;5060538;28;20792;-69
2022/10/04 04:50:20;;;;;;;35.67;20.52;;;;;;;8.91;100.00;102046.44;5043603;28;20489;-67
2022/10/04 04:52:50;;;;;;;34.00;20.75;;;;;;;8.94;100.00;102038.34;5035553;28;20118;-69
2022/10/04 04:55:21;;;;;;;37.72;21.10;;;;;;;8.99;100.00;102039.91;5061296;28;20040;-69
2022/10/04 04:57:50;;;;;;;35.67;22.15;;;;;;;8.89;100.00;102033.19;5063145;28;20047;-67
2022/10/04 05:00:22;;;;;;;43.20;21.42;;;;;;;8.80;100.00;102038.84;5057464;28;20092;-69
2022/10/04 05:02:56;;;;;;;46.78;22.48;;;;;;;8.78;100.00;102030.03;5061241;28;20044;-69
2022/10/04 05:05:35;;;;;;;39.22;21.00;;;;;;;8.77;100.00;102031.84;5059377;28;20051;-71
2022/10/04 05:08:13;;;;;;;34.55;20.17;;;;;;;8.70;100.00;102033.00;5039758;28;20037;-69
2022/10/04 05:11:07;;;;;;;38.03;20.70;;;;;;;8.68;100.00;102036.63;5061007;28;20057;-69
2022/10/04 05:13:48;;;;;;;40.10;21.27;;;;;;;8.61;100.00;102029.81;5054822;28;20040;-69
2022/10/04 05:16:32;;;;;;;40.58;21.25;;;;;;;8.64;100.00;102024.41;5016938;28;20086;-69
2022/10/04 05:19:12;;;;;;;39.20;20.77;;;;;;;8.61;100.00;102022.69;5058026;28;20044;-69
2022/10/04 05:21:42;;;;;;;36.30;20.10;;;;;;;8.50;100.00;102030.19;5056468;28;20063;-68
2022/10/04 05:24:17;;;;;;;33.65;18.42;;;;;;;8.64;100.00;102016.41;5059643;28;20497;-69
2022/10/04 05:26:43;;;;;;;36.53;19.88;;;;;;;8.61;100.00;102017.38;5061030;28;20051;-69
2022/10/04 05:29:14;;;;;;;39.53;19.02;;;;;;;8.61;100.00;102025.34;5036693;28;20036;-67
2022/10/04 05:31:49;;;;;;;33.72;18.75;;;;;;;8.68;100.00;102020.69;5059745;28;20052;-68
2022/10/04 05:34:39;;;;;;;39.08;19.52;;;;;;;8.69;100.00;102025.97;5060447;28;20068;-68
2022/10/04 05:37:30;;;;;;;35.58;18.88;;;;;;;8.74;100.00;102031.13;5049203;28;20048;-68
2022/10/04 05:40:04;;;;;;;35.35;19.90;;;;;;;8.78;100.00;102025.59;5056335;28;20044;-68
2022/10/04 05:42:37;;;;;;;39.92;20.70;;;;;;;8.82;100.00;102031.69;5062759;28;20047;-68
2022/10/04 05:45:13;;;;;;;38.10;17.30;;;;;;;8.79;100.00;102030.00;5058177;28;20059;-68
2022/10/04 05:47:41;;;;;;;35.15;19.20;;;;;;;8.80;100.00;102036.19;5062773;28;20112;-69
2022/10/04 05:50:15;;;;;;;34.55;18.05;;;;;;;8.89;100.00;102042.97;5039619;28;20052;-68
2022/10/04 05:52:42;;;;;;;36.65;18.35;;;;;;;8.84;100.00;102043.16;5062256;28;20048;-68
2022/10/04 05:55:19;;;;;;;51.28;20.67;;;;;;;8.93;100.00;102034.81;5058712;28;20071;-69
2022/10/04 05:58:04;;;;;;;42.63;19.55;;;;;;;8.98;100.00;102031.97;5053286;28;20131;-69
2022/10/04 06:00:55;;;;;;;37.28;18.88;;;;;;;8.98;100.00;102030.16;5037438;28;20041;-69
2022/10/04 06:03:40;;;;;;;40.85;19.30;;;;;;;9.03;100.00;102027.34;5057821;28;20044;-69
2022/10/04 06:06:15;;;;;;;52.97;19.42;;;;;;;9.02;100.00;102028.28;5055180;28;20044;-68
2022/10/04 06:08:46;;;;;;;36.45;18.85;;;;;;;9.05;100.00;102028.16;5042886;28;20037;-69
2022/10/04 06:11:41;;;;;;;40.83;19.98;;;;;;;9.18;100.00;102036.53;5060947;28;20119;-69
2022/10/04 06:14:09;;;;;;;36.08;18.30;;;;;;;9.20;100.00;102032.91;5052966;28;20067;-69
2022/10/04 06:16:57;;;;;;;34.78;18.77;;;;;;;9.18;100.00;102039.19;5061054;28;20101;-68
2022/10/04 06:19:48;;;;;;;34.90;18.13;;;;;;;9.23;100.00;102037.22;5060175;28;20051;-68
2022/10/04 06:22:19;;;;;;;37.80;17.58;;;;;;;9.33;100.00;102041.25;5060538;28;20596;-74
2022/10/04 06:25:08;;;;;;;39.35;17.63;;;;;;;9.38;100.00;102031.31;5060315;28;20141;-68
2022/10/04 06:27:44;;;;;;;33.65;17.40;;;;;;;9.40;100.00;102040.13;5056942;28;20075;-69
2022/10/04 06:30:15;;;;;;;35.63;16.38;;;;;;;9.40;100.00;102050.75;5059473;28;20048;-69
2022/10/04 06:33:05;;;;;;;40.70;17.52;;;;;;;9.43;100.00;102052.44;5052484;28;20058;-68
2022/10/04 06:35:47;;;;;;;37.33;18.10;;;;;;;9.43;100.00;102050.63;5057124;28;20097;-67
2022/10/04 06:38:31;;;;;;;35.67;17.05;;;;;;;9.52;100.00;102060.91;5052667;28;20460;-69
2022/10/04 06:41:18;;;;;;;30.30;15.88;;;;;;;9.55;100.00;102051.97;5059753;28;20090;-69
2022/10/04 06:44:03;;;;;;;35.75;17.13;;;;;;;9.58;100.00;102054.47;5056331;28;20048;-69
2022/10/04 06:46:39;;;;;;;27.35;15.23;;;;;;;9.57;100.00;102053.63;5038682;28;20101;-69
2022/10/04 06:49:04;;;;;;;28.67;15.80;;;;;;;9.60;100.00;102050.84;5058159;28;20052;-67
2022/10/04 06:51:45;;;;;;;33.72;15.68;;;;;;;9.59;100.00;102054.44;5059956;28;20058;-68
2022/10/04 06:54:32;;;;;;;33.53;15.82;;;;;;;9.58;100.00;102057.16;5057722;28;20040;-68
2022/10/04 06:57:28;;;;;;;38.50;16.60;;;;;;;9.78;100.00;102059.00;5052049;28;20068;-68
2022/10/04 07:00:09;;;;;;;31.85;15.38;;;;;;;9.76;100.00;102055.56;5050295;28;20059;-68
2022/10/04 07:03:02;;;;;;;28.25;15.00;;;;;;;9.91;100.00;102046.94;5059759;28;20066;-68
2022/10/04 07:05:38;;;;;;;28.40;16.05;;;;;;;9.88;100.00;102041.72;5057053;28;20041;-69
2022/10/04 07:08:33;;;;;;;27.70;15.18;;;;;;;9.88;100.00;102048.84;5053197;28;20605;-68
2022/10/04 07:11:20;;;;;;;37.15;15.75;;;;;;;9.80;100.00;102046.50;5059847;28;20045;-69
2022/10/04 07:14:01;;;;;;;31.98;15.77;;;;;;;9.87;100.00;102045.31;5056123;28;20587;-68
2022/10/04 07:16:33;;;;;;;25.83;14.73;;;;;;;10.05;100.00;102041.91;5054647;28;20036;-68
2022/10/04 07:19:05;;;;;;;28.92;15.30;;;;;;;10.12;100.00;102042.50;5044067;28;20074;-68
2022/10/04 07:22:03;;;;;;;24.60;14.90;;;;;;;10.24;100.00;102049.13;5060844;28;20021;-68
2022/10/04 07:25:10;;;;;;;26.10;14.32;;;;;;;10.34;100.00;102045.13;5061069;28;20047;-67
2022/10/04 07:30:55;;;;;;;23.65;12.70;;;;;;;10.44;100.00;102037.63;4980179;28;20050;-69
2022/10/04 07:33:23;;;;;;;29.13;13.48;;;;;;;10.60;100.00;102033.38;4974069;28;20116;-68
2022/10/04 07:36:06;;;;;;;24.60;13.38;;;;;;;10.88;100.00;102030.31;4977776;28;20089;-68
2022/10/04 07:38:38;;;;;;;23.88;12.52;;;;;;;10.95;100.00;102029.09;4971981;28;20050;-69
2022/10/04 07:41:09;;;;;;;27.40;12.77;;;;;;;11.38;100.00;102033.28;4980010;28;20046;-67
2022/10/04 07:43:54;;;;;;;24.08;11.30;;;;;;;11.65;100.00;102031.09;4979987;28;20114;-67
2022/10/04 07:46:43;;;;;;;21.75;10.98;;;;;;;11.69;100.00;102037.16;4984473;28;20069;-69
2022/10/04 07:49:16;;;;;;;17.30;9.45;;;;;;;11.83;100.00;102036.50;4960327;28;20042;-68
2022/10/04 07:51:51;;;;;;;23.95;10.90;;;;;;;11.85;100.00;102035.50;4981638;28;20080;-68
2022/10/04 07:54:39;;;;;;;22.48;9.88;;;;;;;12.06;100.00;102020.19;4969354;28;20042;-68
2022/10/04 07:57:16;;;;;;;22.40;9.40;;;;;;;12.31;100.00;102016.28;4980827;28;20113;-68
2022/10/04 07:59:57;;;;;;;18.05;10.05;;;;;;;12.70;100.00;102015.97;4979942;28;20113;-67
2022/10/04 08:02:28;;;;;;;22.25;10.30;;;;;;;12.39;100.00;102025.59;4989048;28;20046;-68
2022/10/04 08:05:28;;;;;;;24.85;10.25;;;;;;;12.58;100.00;102021.97;5054700;28;20382;-67
2022/10/04 08:08:20;;;;;;;21.42;9.05;;;;;;;12.91;100.00;102020.19;5057125;28;20114;-67
2022/10/04 08:11:11;;;;;;;13.32;8.30;;;;;;;12.76;100.00;102010.31;5049159;28;20108;-67
2022/10/04 08:13:37;;;;;;;17.20;8.57;;;;;;;12.95;100.00;102020.84;5055341;28;20042;-69
2022/10/04 08:16:22;;;;;;;21.52;9.13;;;;;;;12.42;100.00;102005.88;5064257;28;20044;-69
2022/10/04 08:18:57;;;;;;;15.63;8.95;;;;;;;12.63;100.00;102010.06;5062631;28;20051;-69
2022/10/04 08:21:36;;;;;;;20.90;9.63;;;;;;;12.78;100.00;102011.06;5063627;28;20162;-68
2022/10/04 08:24:10;;;;;;;12.93;8.52;;;;;;;13.16;100.00;102016.16;5065032;28;20040;-68
2022/10/04 08:27:03;;;;;;;18.60;9.05;;;;;;;13.39;100.00;102001.50;5063958;28;20075;-67
2022/10/04 08:29:56;;;;;;;;;;;;;;;13.32;100.00;102000.97;5038926;28;20090;-69
2022/10/04 08:32:43;;;;;;;17.20;9.07;;;;;;;13.56;100.00;102009.44;5062065;28;19940;-69
2022/10/04 08:35:31;;;;;;;16.83;8.82;;;;;;;13.55;100.00;102017.56;5042262;28;20036;-67
2022/10/04 08:38:20;;;;;;;17.83;9.07;;;;;;;13.74;100.00;102024.47;5041663;28;20125;-69
2022/10/04 08:40:54;;;;;;;15.30;8.48;;;;;;;13.54;100.00;102023.88;5059402;28;20032;-69
2022/10/04 08:43:24;;;;;;;20.02;9.43;;;;;;;13.63;100.00;102036.75;5059575;28;20835;-69
2022/10/04 08:45:58;;;;;;;15.75;8.07;;;;;;;13.68;100.00;102035.53;5058955;28;20033;-68
2022/10/04 08:48:45;;;;;;;18.35;7.60;;;;;;;13.97;100.00;102031.19;5062648;28;20033;-69
2022/10/04 08:51:53;;;;;;;12.00;7.75;;;;;;;14.18;100.00;102034.41;5059786;28;20041;-69
2022/10/04 08:54:57;;;;;;;13.85;7.65;;;;;;;14.13;100.00;102028.44;5000864;28;20056;-69
2022/10/04 08:57:40;;;;;;;20.17;7.47;;;;;;;14.41;100.00;102021.44;5040872;28;20037;-70
2022/10/04 09:00:33;;;;;;;12.35;7.13;;;;;;;14.27;100.00;102016.91;5058005;28;20123;-69
2022/10/04 09:03:15;;;;;;;14.52;7.97;;;;;;;14.42;100.00;102025.84;5062273;28;20044;-69
2022/10/04 09:05:59;;;;;;;13.60;8.50;;;;;;;14.75;99.52;102017.56;5061267;28;20159;-68
2022/10/04 09:09:06;;;;;;;15.48;8.18;;;;;;;14.66;99.94;102018.13;5043345;28;20040;-69
2022/10/04 09:11:53;;;;;;;14.73;7.65;;;;;;;14.81;99.14;102017.22;4982243;28;20038;-68
2022/10/04 09:14:50;;;;;;;18.52;8.65;;;;;;;14.91;100.00;102012.09;4967456;28;20479;-67
2022/10/04 09:17:46;;;;;;;16.52;7.95;;;;;;;14.94;97.59;102006.53;4977037;28;20157;-68
2022/10/04 09:20:39;;;;;;;12.13;7.15;;;;;;;14.79;98.36;102012.88;4981898;28;20085;-67
2022/10/04 09:23:28;;;;;;;16.80;7.43;;;;;;;14.80;96.87;102010.09;4982081;28;20046;-67
2022/10/04 09:26:35;;;;;;;14.52;6.95;;;;;;;15.21;97.12;102014.66;4980694;28;20057;-68
2022/10/04 09:29:25;;;;;;;16.48;7.85;;;;;;;14.83;95.52;102009.91;4980120;28;20137;-67
2022/10/04 09:32:32;;;;;;;18.23;7.00;;;;;;;15.10;94.35;102012.66;4978972;28;20096;-66
2022/10/04 09:35:19;;;;;;;18.00;8.02;;;;;;;15.04;93.61;102010.38;4960915;28;20492;-69
2022/10/04 09:38:06;;;;;;;19.83;9.68;;;;;;;15.14;95.99;102003.44;4959119;28;20327;-68
2022/10/04 09:41:11;;;;;;;17.92;8.00;;;;;;;15.25;96.10;102000.06;4961784;28;20404;-68
2022/10/04 09:44:23;;;;;;;15.73;7.53;;;;;;;15.39;93.31;102001.88;4978930;28;20563;-69
2022/10/04 09:46:57;;;;;;;13.15;9.00;;;;;;;15.08;92.72;101994.94;4997500;28;20180;-66
2022/10/04 09:49:35;;;;;;;14.93;7.72;;;;;;;15.15;94.00;101996.25;4997294;28;20071;-68
2022/10/04 09:52:28;;;;;;;16.15;7.65;;;;;;;15.24;93.90;101999.22;4980680;28;20053;-67
2022/10/04 09:55:12;;;;;;;15.93;8.38;;;;;;;15.34;92.58;101994.09;4990820;28;20042;-67
2022/10/04 09:57:59;;;;;;;12.32;7.32;;;;;;;15.64;93.18;101999.34;4996978;28;20050;-69
2022/10/04 10:00:47;;;;;;;15.00;8.35;;;;;;;15.71;90.56;101997.97;4996959;28;20952;-68
2022/10/04 10:03:31;;;;;;;20.80;9.40;;;;;;;15.69;92.25;101999.03;4976124;28;20058;-70
2022/10/04 10:06:06;;;;;;;19.80;9.90;;;;;;;15.56;92.68;101998.94;4983806;28;20038;-66
2022/10/04 10:08:52;;;;;;;18.65;9.60;;;;;;;15.58;91.38;101991.66;4993664;28;20108;-67
2022/10/04 10:15:00;;;;;;;19.92;8.10;;;;;;;15.78;93.19;101995.72;5051784;28;20115;-66
2022/10/04 10:18:00;;;;;;;18.33;8.63;;;;;;;15.92;89.75;101989.44;5058170;28;20086;-69
2022/10/04 10:20:26;;;;;;;23.25;8.73;;;;;;;16.03;88.40;101981.50;4978415;28;20050;-68
2022/10/04 10:23:18;;;;;;;20.63;8.65;;;;;;;15.93;87.87;101980.38;4978303;28;20057;-69
2022/10/04 10:26:14;;;;;;;14.35;8.68;;;;;;;16.17;88.02;101980.56;4978066;28;20491;-68
2022/10/04 10:29:01;;;;;;;20.92;9.75;;;;;;;16.04;88.53;101973.31;4977894;28;20065;-69
2022/10/04 10:31:39;;;;;;;15.10;7.90;;;;;;;16.11;88.68;101970.19;4978128;28;20054;-69
2022/10/04 10:34:12;;;;;;;17.00;8.90;;;;;;;16.08;86.88;101971.28;4972306;28;20074;-68
2022/10/04 10:37:17;;;;;;;17.75;9.07;;;;;;;16.13;87.50;101961.06;4978254;28;20078;-69
2022/10/04 10:40:24;;;;;;;15.70;8.68;;;;;;;16.27;85.24;101957.41;4938222;28;20941;-68
2022/10/04 10:43:20;;;;;;;19.02;9.20;;;;;;;16.47;87.53;101964.97;4900926;29;20063;-69
2022/10/04 10:46:18;;;;;;;20.25;8.98;;;;;;;16.51;86.07;101961.06;4901564;29;20044;-68
2022/10/04 10:48:54;;;;;;;18.48;9.18;;;;;;;16.51;85.19;101960.19;4901265;29;20490;-69
2022/10/04 10:51:33;;;;;;;20.63;10.27;;;;;;;16.60;85.19;101959.56;4885589;29;20063;-69
2022/10/04 10:54:07;;;;;;;20.58;9.80;;;;;;;16.57;86.59;101963.34;4898602;28;20717;-68
2022/10/04 10:57:01;;;;;;;23.45;9.20;;;;;;;16.68;85.36;101961.72;4942095;28;20835;-69
2022/10/04 10:59:53;;;;;;;17.05;8.35;;;;;;;16.63;84.56;101970.13;4937011;28;20516;-67
2022/10/04 11:02:41;;;;;;;17.13;8.63;;;;;;;16.61;83.43;101971.19;4954463;28;20050;-66
2022/10/04 11:05:44;;;;;;;14.77;8.23;;;;;;;16.93;81.84;101977.03;4957795;28;20058;-70
2022/10/04 11:08:10;;;;;;;17.55;8.60;;;;;;;16.96;81.83;101982.16;4941595;28;20613;-66
2022/10/04 11:10:54;;;;;;;17.45;7.53;;;;;;;16.92;83.93;101983.34;4953171;28;20495;-66
2022/10/04 11:13:53;;;;;;;21.35;9.45;;;;;;;16.76;84.69;101970.97;4956990;28;20830;-67
2022/10/04 11:17:04;;;;;;;19.80;8.52;;;;;;;16.88;85.14;101965.72;4940234;28;20047;-69
2022/10/04 11:20:04;;;;;;;18.65;8.25;;;;;;;17.13;84.14;101962.97;5018041;28;20763;-69
2022/10/04 11:23:05;;;;;;;16.35;8.02;;;;;;;17.29;83.36;101958.16;5055520;28;20058;-67
2022/10/04 11:25:56;;;;;;;21.48;8.68;;;;;;;16.79;81.46;101951.06;5053044;28;20270;-69
2022/10/04 11:28:45;;;;;;;15.80;7.60;;;;;;;17.13;84.34;101945.94;5056217;28;20485;-67
2022/10/04 11:31:39;;;;;;;18.30;8.85;;;;;;;17.23;81.69;101938.88;5058093;28;20042;-69
2022/10/04 11:34:34;;;;;;;16.10;8.00;;;;;;;17.28;81.46;101929.47;5051912;28;20043;-70
2022/10/04 11:37:17;;;;;;;16.50;7.50;;;;;;;17.12;80.17;101930.69;5056941;28;20043;-69
2022/10/04 11:39:52;;;;;;;22.77;7.82;;;;;;;17.13;82.52;101925.22;5046986;28;20096;-67
2022/10/04 11:42:48;;;;;;;14.95;7.68;;;;;;;17.24;80.32;101922.59;5057154;28;20059;-68
2022/10/04 11:45:40;;;;;;;15.68;7.50;;;;;;;17.06;80.71;101910.47;5028738;28;20814;-69
2022/10/04 11:48:28;;;;;;;13.27;6.57;;;;;;;17.21;80.52;101913.84;5058744;28;20118;-69
2022/10/04 11:51:26;;;;;;;16.08;7.15;;;;;;;17.22;79.54;101918.25;5041892;28;20512;-67
2022/10/04 11:54:20;;;;;;;15.05;7.05;;;;;;;17.30;77.99;101916.72;5049906;28;20089;-68
2022/10/04 11:57:06;;;;;;;13.35;5.28;;;;;;;17.45;78.90;101903.94;5052094;28;20564;-69
2022/10/04 11:59:58;;;;;;;16.13;5.40;;;;;;;17.49;76.20;101904.56;5054922;28;20040;-69
2022/10/04 12:03:04;;;;;;;13.00;5.82;;;;;;;17.36;77.90;101891.13;5031495;28;20052;-69
2022/10/04 12:05:56;;;;;;;17.30;6.20;;;;;;;17.49;76.74;101897.34;5054188;28;20563;-68
2022/10/04 12:08:31;;;;;;;16.80;6.03;;;;;;;17.63;75.71;101885.50;5053311;28;20032;-68
2022/10/04 12:11:18;;;;;;;17.83;5.97;;;;;;;17.66;77.99;101889.78;5035339;28;20781;-69
2022/10/04 12:13:57;;;;;;;18.00;6.63;;;;;;;17.72;77.17;101897.41;5034770;28;20083;-69
2022/10/04 12:16:55;;;;;;;11.15;5.93;;;;;;;17.72;76.73;101897.41;5049312;28;20040;-68
2022/10/04 12:19:58;;;;;;;11.18;5.28;;;;;;;17.97;77.05;101897.31;5034506;28;20102;-68
2022/10/04 12:22:26;;;;;;;12.98;5.90;;;;;;;17.80;76.31;101887.78;5053337;28;20044;-66